Time;durP1;ratioP1;P1;durP2;ratioP2;P2;SDS_P1;SDS_P2;PMS_P1;PMS_P2;Temp;Humidity;BMP_temperature;BMP_pressure;BME280_temperature;BME280_humidity;BME280_pressure;Samples;Min_cycle;Max_cycle;Signal;HPM_P1;HPM_P2
2022/11/29 00:01:57;;;;;;;2.35;1.15;;;;;;;16.20;100.00;101066.16;20954587;28;20131;-86
2022/11/29 00:12:13;;;;;;;2.30;1.40;;;;;;;16.13;100.00;101054.19;20953797;28;20573;-86
2022/11/29 00:22:15;;;;;;;1.30;0.93;;;;;;;16.20;100.00;101074.22;20958322;28;20060;-86
2022/11/29 00:32:16;;;;;;;1.63;1.02;;;;;;;16.19;100.00;101069.81;20956968;28;20567;-85
2022/11/29 00:42:19;;;;;;;0.98;0.95;;;;;;;15.99;99.88;101042.72;20957698;28;20040;-86
2022/11/29 00:52:20;;;;;;;1.85;1.30;;;;;;;16.21;99.71;101081.31;20956383;28;20056;-85
2022/11/29 01:02:22;;;;;;;1.27;0.98;;;;;;;16.20;99.85;101088.53;20951302;28;20064;-86
2022/11/29 01:12:23;;;;;;;1.60;1.40;;;;;;;16.20;99.33;101091.22;20970821;28;20455;-85
2022/11/29 01:22:25;;;;;;;1.98;1.55;;;;;;;16.20;99.30;101095.72;20969705;28;20048;-85
2022/11/29 01:32:26;;;;;;;1.10;1.00;;;;;;;16.20;99.04;101106.44;20969127;28;20059;-85
2022/11/29 01:42:28;;;;;;;1.77;1.40;;;;;;;16.12;98.88;101101.66;20944273;28;20041;-86
2022/11/29 01:52:31;;;;;;;2.33;1.20;;;;;;;16.19;98.86;101118.19;20967490;28;20041;-84
2022/11/29 02:02:37;;;;;;;2.53;1.40;;;;;;;16.18;98.74;101111.09;20942931;28;20548;-84
2022/11/29 02:12:45;;;;;;;2.10;1.33;;;;;;;16.18;98.70;101122.72;20958232;28;20448;-86
2022/11/29 02:22:55;;;;;;;2.05;1.15;;;;;;;16.12;98.42;101119.63;20965568;28;20194;-86
2022/11/29 02:33:17;;;;;;;1.73;1.10;;;;;;;16.18;98.33;101132.59;20959568;28;20056;-85
2022/11/29 02:43:30;;;;;;;1.70;1.15;;;;;;;15.97;98.14;101086.75;20962996;28;20045;-86
2022/11/29 02:53:41;;;;;;;2.50;1.33;;;;;;;15.59;97.93;101040.41;20954636;28;20071;-86
2022/11/29 03:04:16;;;;;;;1.40;1.30;;;;;;;16.10;97.90;101130.47;20961777;28;20055;-86
2022/11/29 03:14:31;;;;;;;2.13;1.23;;;;;;;16.17;97.95;101153.22;20961873;28;20068;-86
2022/11/29 03:24:44;;;;;;;1.50;1.20;;;;;;;16.18;97.74;101170.19;20953161;28;20056;-86
2022/11/29 03:34:58;;;;;;;1.98;1.20;;;;;;;15.87;97.45;101129.53;20954299;28;20056;-85
2022/11/29 03:45:23;;;;;;;1.58;1.35;;;;;;;16.18;97.51;101191.69;20960082;28;20112;-86
2022/11/29 03:55:55;;;;;;;1.77;1.13;;;;;;;16.17;97.45;101189.97;20950615;28;20061;-85
2022/11/29 04:06:42;;;;;;;1.58;1.33;;;;;;;16.18;97.14;101210.47;20986044;28;20079;-85
2022/11/29 04:17:18;;;;;;;2.30;1.23;;;;;;;16.17;97.01;101211.44;21016745;28;20051;-85
2022/11/29 04:27:47;;;;;;;1.97;1.40;;;;;;;16.16;97.13;101207.94;21023399;28;20036;-86
2022/11/29 04:38:16;;;;;;;1.83;1.30;;;;;;;16.17;96.92;101209.63;21027096;28;20051;-85
2022/11/29 04:48:39;;;;;;;2.45;1.83;;;;;;;16.17;96.57;101214.13;21036420;28;20492;-86
2022/11/29 04:58:58;;;;;;;2.30;1.60;;;;;;;16.17;96.82;101224.88;21054320;28;20385;-86
2022/11/29 05:09:16;;;;;;;1.20;1.10;;;;;;;15.93;96.40;101201.63;21010307;28;20072;-86
2022/11/29 05:19:45;;;;;;;2.20;1.40;;;;;;;16.16;96.38;101244.66;20972520;28;20093;-86
2022/11/29 05:30:02;;;;;;;1.58;1.30;;;;;;;16.16;96.33;101250.91;21055142;28;20048;-86
2022/11/29 05:40:33;;;;;;;1.75;1.30;;;;;;;16.15;96.08;101261.75;21127939;28;20050;-86
2022/11/29 05:50:39;;;;;;;1.73;1.40;;;;;;;16.01;96.13;101255.59;21032430;28;20126;-86
2022/11/29 06:00:48;;;;;;;2.70;1.77;;;;;;;16.18;94.89;101288.38;20992524;28;20412;-89
2022/11/29 06:11:05;;;;;;;3.75;1.80;;;;;;;16.28;93.05;101299.28;20986203;28;20095;-92
2022/11/29 06:21:22;;;;;;;3.42;1.70;;;;;;;16.35;91.85;101295.16;20997565;28;20059;-94
2022/11/29 06:31:30;;;;;;;2.97;1.98;;;;;;;16.43;90.55;101303.50;21000004;28;20053;-94
2022/11/29 06:41:31;;;;;;;2.63;1.92;;;;;;;16.47;89.87;101321.09;20990175;28;20044;-90
2022/11/29 06:51:50;;;;;;;3.67;1.60;;;;;;;16.15;89.45;101294.84;20963948;28;20044;-87
2022/11/29 07:01:57;;;;;;;2.25;1.60;;;;;;;16.38;90.26;101354.91;21005137;28;20452;-88
2022/11/29 07:11:59;;;;;;;3.03;1.48;;;;;;;16.29;91.06;101344.84;20984406;28;20381;-86
2022/11/29 07:22:12;;;;;;;6.68;1.95;;;;;;;16.38;93.50;101359.41;20995748;28;20147;-89
2022/11/29 07:32:53;;;;;;;8.32;3.72;;;;;;;16.50;99.60;101366.56;20995624;28;20051;-89
2022/11/29 07:43:10;;;;;;;6.55;2.35;;;;;;;16.55;99.43;101374.28;20981835;28;20059;-88
2022/11/29 07:53:15;;;;;;;4.72;2.63;;;;;;;16.51;98.44;101383.56;21002521;28;20066;-87
2022/11/29 08:03:17;;;;;;;8.13;2.20;;;;;;;16.48;97.81;101394.53;20969379;28;20051;-87
2022/11/29 08:13:20;;;;;;;4.28;1.98;;;;;;;16.42;97.71;101397.69;21008651;28;20507;-87
2022/11/29 08:23:21;;;;;;;6.07;2.30;;;;;;;16.36;97.62;101397.19;21040207;28;20403;-87
2022/11/29 08:33:22;;;;;;;3.72;1.65;;;;;;;16.36;97.62;101412.41;21010385;28;20134;-87
2022/11/29 08:43:24;;;;;;;4.35;1.70;;;;;;;16.12;97.30;101383.69;21030286;28;20044;-87
2022/11/29 08:53:42;;;;;;;3.40;1.92;;;;;;;15.89;97.13;101359.41;21007757;28;20504;-88
2022/11/29 09:04:01;;;;;;;3.03;1.40;;;;;;;16.23;97.07;101425.91;21001892;28;20100;-87
2022/11/29 09:14:05;;;;;;;3.80;1.52;;;;;;;16.29;97.00;101441.56;21013402;28;20051;-89
2022/11/29 09:24:08;;;;;;;2.95;1.60;;;;;;;16.28;96.64;101449.75;21006109;28;20044;-88
2022/11/29 09:34:13;;;;;;;2.08;1.40;;;;;;;16.28;96.63;101460.50;20968885;28;20127;-88
2022/11/29 09:44:18;;;;;;;4.65;1.50;;;;;;;16.27;96.47;101459.63;21010932;28;20048;-86
2022/11/29 09:54:39;;;;;;;1.37;1.10;;;;;;;16.01;96.25;101427.47;21023050;28;20047;-89
2022/11/29 10:04:47;;;;;;;3.47;1.92;;;;;;;15.97;96.22;101435.84;20998237;28;20150;-86
2022/11/29 10:14:48;;;;;;;1.70;1.20;;;;;;;16.25;96.00;101472.31;20994524;28;20173;-87
2022/11/29 10:24:53;;;;;;;2.53;1.50;;;;;;;16.26;96.04;101473.19;21018859;28;20060;-88
2022/11/29 10:34:57;;;;;;;2.03;1.48;;;;;;;16.01;95.95;101431.97;21002483;28;20623;-87
2022/11/29 10:44:59;;;;;;;1.67;1.10;;;;;;;16.23;95.74;101464.38;21001262;28;20048;-88
2022/11/29 10:55:00;;;;;;;1.55;1.30;;;;;;;15.99;95.70;101436.59;21000001;28;20056;-88
2022/11/29 11:05:10;;;;;;;1.30;1.00;;;;;;;16.22;95.63;101484.16;21000518;28;20496;-90
2022/11/29 11:15:12;;;;;;;1.73;1.20;;;;;;;16.23;95.45;101479.63;20998654;28;20499;-85
2022/11/29 11:25:27;;;;;;;3.05;1.27;;;;;;;15.96;95.41;101440.38;21015991;28;20739;-85
2022/11/29 11:35:29;;;;;;;2.42;1.00;;;;;;;16.17;95.32;101474.69;20994879;28;20060;-85
2022/11/29 11:45:33;;;;;;;2.78;1.25;;;;;;;16.22;95.22;101488.66;21017017;28;20455;-85
2022/11/29 11:55:42;;;;;;;2.50;1.40;;;;;;;16.23;95.20;101495.75;20982184;28;20048;-85
2022/11/29 12:05:46;;;;;;;3.83;1.42;;;;;;;16.22;95.12;101511.03;20992491;28;20310;-85
2022/11/29 12:15:48;;;;;;;3.47;1.20;;;;;;;16.22;95.20;101508.34;20968714;28;20102;-83
2022/11/29 12:26:10;;;;;;;1.30;1.10;;;;;;;16.22;94.92;101521.78;20968876;28;20051;-86
2022/11/29 12:36:25;;;;;;;2.40;1.23;;;;;;;16.22;94.93;101528.94;20985387;28;20063;-85
2022/11/29 12:46:28;;;;;;;3.35;1.40;;;;;;;16.22;94.84;101531.63;21007368;28;20504;-85
2022/11/29 12:56:36;;;;;;;2.45;1.48;;;;;;;16.04;95.06;101513.19;20989328;28;20496;-94
2022/11/29 13:06:53;;;;;;;2.00;1.27;;;;;;;16.24;95.28;101543.13;21001360;28;20094;-92
2022/11/29 13:17:01;;;;;;;2.33;1.42;;;;;;;16.26;95.17;101545.72;21013052;28;20048;-92
2022/11/29 13:27:04;;;;;;;2.22;1.25;;;;;;;16.16;95.20;101538.31;21012309;28;20064;-92
2022/11/29 13:37:14;;;;;;;2.40;1.42;;;;;;;16.25;94.99;101547.53;21020814;28;20885;-92
2022/11/29 13:47:17;;;;;;;2.03;1.20;;;;;;;16.26;94.97;101553.78;20998857;28;20051;-92
2022/11/29 13:57:19;;;;;;;3.17;1.40;;;;;;;16.25;94.81;101563.66;21004189;28;20086;-93
2022/11/29 14:07:20;;;;;;;2.30;1.10;;;;;;;16.26;94.93;101575.28;20990879;28;20045;-93
2022/11/29 14:17:46;;;;;;;1.95;1.42;;;;;;;16.08;94.67;101563.03;20979716;28;20036;-89
2022/11/29 14:27:54;;;;;;;2.05;1.10;;;;;;;16.21;94.72;101589.03;20999532;28;20056;-91
2022/11/29 14:38:23;;;;;;;2.17;0.93;;;;;;;16.26;94.72;101599.47;20976391;28;20071;-91
2022/11/29 14:48:32;;;;;;;2.03;1.55;;;;;;;16.26;94.66;101608.38;20982055;28;20052;-91
2022/11/29 14:58:33;;;;;;;2.60;1.02;;;;;;;16.24;94.67;101611.19;20989560;28;20044;-91
2022/11/29 15:08:40;;;;;;;2.50;1.10;;;;;;;16.25;94.54;101620.09;20990504;28;20117;-89
2022/11/29 15:18:41;;;;;;;1.90;1.00;;;;;;;16.24;94.60;101626.41;20999472;28;20362;-89
2022/11/29 15:28:43;;;;;;;2.58;1.50;;;;;;;16.26;94.97;101651.34;20998903;28;20044;-94
2022/11/29 15:38:54;;;;;;;1.85;1.27;;;;;;;16.33;96.84;101652.63;20977629;28;20105;-92
2022/11/29 15:49:17;;;;;;;2.00;1.20;;;;;;;16.43;97.04;101646.63;20990933;28;20058;-88
2022/11/29 15:59:46;;;;;;;1.98;1.38;;;;;;;16.51;97.11;101655.84;21000345;28;20079;-87
2022/11/29 16:09:56;;;;;;;2.60;1.35;;;;;;;16.58;96.73;101666.22;20987041;28;20048;-88
2022/11/29 16:20:15;;;;;;;2.28;1.25;;;;;;;16.62;96.22;101671.22;20977830;28;20051;-88
2022/11/29 16:30:22;;;;;;;2.33;1.45;;;;;;;16.58;95.83;101658.97;21005315;28;20041;-86
2022/11/29 16:40:29;;;;;;;2.15;1.20;;;;;;;16.66;96.03;101678.09;20986232;28;20058;-87
2022/11/29 16:50:31;;;;;;;4.10;1.40;;;;;;;16.46;95.54;101649.94;20995182;28;20054;-89
2022/11/29 17:00:33;;;;;;;3.13;1.75;;;;;;;16.46;95.47;101659.84;21002337;28;20040;-93
2022/11/29 17:10:34;;;;;;;4.60;2.08;;;;;;;16.52;95.37;101657.56;21004150;28;20504;-91
2022/11/29 17:20:36;;;;;;;5.68;2.13;;;;;;;16.22;95.12;101612.25;20966363;28;20056;-90
2022/11/29 17:30:37;;;;;;;3.92;1.95;;;;;;;16.74;95.14;101719.72;20937746;28;20059;-89
2022/11/29 17:40:39;;;;;;;4.60;2.35;;;;;;;16.49;94.73;101698.13;20957264;28;20052;-90
2022/11/29 17:50:41;;;;;;;3.75;2.08;;;;;;;16.76;94.74;101733.91;20942288;28;20048;-90
2022/11/29 18:00:42;;;;;;;7.28;2.20;;;;;;;16.17;94.56;101660.06;20976860;28;20051;-90
2022/11/29 18:10:44;;;;;;;5.68;2.42;;;;;;;16.76;94.06;101758.13;20969965;28;20052;-93
2022/11/29 18:20:45;;;;;;;5.82;2.30;;;;;;;16.68;93.78;101762.22;20953484;28;20048;-93
2022/11/29 18:30:47;;;;;;;6.18;2.72;;;;;;;16.61;93.88;101773.50;20990543;28;20044;-86
2022/11/29 18:40:48;;;;;;;5.45;2.60;;;;;;;16.55;93.93;101788.22;21001096;28;20703;-87
2022/11/29 18:50:50;;;;;;;7.10;2.67;;;;;;;16.51;94.09;101789.41;20997882;28;20178;-87
2022/11/29 19:00:51;;;;;;;6.20;3.03;;;;;;;16.47;94.12;101795.97;21011346;28;20206;-87
2022/11/29 19:10:52;;;;;;;5.65;2.90;;;;;;;16.43;94.19;101791.78;21017836;28;20052;-86
2022/11/29 19:21:09;;;;;;;4.90;2.10;;;;;;;16.40;94.26;101800.88;21005921;28;20055;-86
2022/11/29 19:31:14;;;;;;;5.72;2.40;;;;;;;16.37;94.32;101810.03;20996657;28;20064;-86
2022/11/29 19:41:18;;;;;;;6.15;2.47;;;;;;;16.38;94.37;101827.00;21006758;28;20058;-86
2022/11/29 19:51:21;;;;;;;5.75;2.30;;;;;;;16.35;94.37;101817.34;20996629;28;20046;-86
2022/11/29 20:01:26;;;;;;;3.60;2.10;;;;;;;16.22;94.27;101805.69;21007382;28;20105;-87
2022/11/29 20:11:28;;;;;;;4.57;2.20;;;;;;;16.24;94.32;101815.38;20993637;28;20066;-86
2022/11/29 20:21:31;;;;;;;4.95;2.22;;;;;;;16.32;94.40;101847.09;20977060;28;20048;-86
2022/11/29 20:31:34;;;;;;;4.88;2.20;;;;;;;16.30;94.13;101848.16;20983953;28;20050;-86
2022/11/29 20:42:02;;;;;;;3.95;2.00;;;;;;;16.30;94.19;101846.31;20994256;28;20048;-86
2022/11/29 20:52:05;;;;;;;2.88;1.88;;;;;;;16.29;94.05;101839.22;20989360;28;20059;-86
2022/11/29 21:02:07;;;;;;;4.78;2.35;;;;;;;16.27;94.02;101838.47;20975079;28;20044;-86
2022/11/29 21:12:09;;;;;;;4.75;2.17;;;;;;;16.27;93.98;101849.22;21006010;28;20059;-85
2022/11/29 21:22:26;;;;;;;3.80;1.88;;;;;;;16.27;93.86;101854.59;20980070;28;20052;-86
2022/11/29 21:32:28;;;;;;;3.13;1.92;;;;;;;16.26;93.93;101852.03;21011044;28;20134;-86
2022/11/29 21:42:29;;;;;;;3.58;2.30;;;;;;;15.87;93.86;101809.72;20985153;28;20048;-87
2022/11/29 21:52:31;;;;;;;2.78;1.83;;;;;;;16.25;93.74;101867.28;21022023;28;20075;-87
2022/11/29 22:02:32;;;;;;;3.88;2.17;;;;;;;16.25;93.75;101875.31;21021237;28;20056;-87
2022/11/29 22:12:34;;;;;;;1.90;1.52;;;;;;;15.70;93.67;101783.97;20991760;28;20488;-86
2022/11/29 22:22:35;;;;;;;3.42;1.75;;;;;;;16.23;93.73;101885.31;21018845;28;20131;-87
2022/11/29 22:32:37;;;;;;;3.22;1.90;;;;;;;16.22;93.65;101891.66;20988013;28;20036;-87
2022/11/29 22:42:40;;;;;;;2.95;1.90;;;;;;;16.22;93.51;101891.66;21000530;28;20161;-86
2022/11/29 22:52:41;;;;;;;3.67;1.95;;;;;;;16.22;93.60;101891.66;21008206;28;20059;-86
2022/11/29 23:02:43;;;;;;;3.80;2.10;;;;;;;16.09;93.35;101873.66;21017007;28;20052;-86
2022/11/29 23:12:46;;;;;;;3.28;1.90;;;;;;;16.06;93.42;101873.00;21008311;28;20492;-87
2022/11/29 23:22:47;;;;;;;3.10;2.20;;;;;;;16.21;93.37;101900.69;21015923;28;20048;-87
2022/11/29 23:32:49;;;;;;;3.25;2.05;;;;;;;16.01;93.34;101884.06;20992334;28;20086;-85
2022/11/29 23:42:51;;;;;;;2.95;2.08;;;;;;;16.20;93.36;101915.06;21008106;28;20376;-87
2022/11/29 23:52:53;;;;;;;2.88;1.88;;;;;;;16.20;93.17;101904.31;21009377;28;20050;-87
